sensor_id;sensor_type;location;lat;lon;timestamp;temperature;humidity
71297;SHT31;59082;50.658;4.608;2023-06-22T04:16:48;19.19;94.20
71297;SHT31;59082;50.658;4.608;2023-06-22T04:19:14;19.17;94.50
71297;SHT31;59082;50.658;4.608;2023-06-22T04:21:42;19.20;94.57
71297;SHT31;59082;50.658;4.608;2023-06-22T04:24:07;19.24;94.94
71297;SHT31;59082;50.658;4.608;2023-06-22T04:26:33;19.19;94.94
71297;SHT31;59082;50.658;4.608;2023-06-22T04:29:03;19.14;94.71
71297;SHT31;59082;50.658;4.608;2023-06-22T04:31:31;19.09;94.91
71297;SHT31;59082;50.658;4.608;2023-06-22T04:33:57;19.13;94.92
71297;SHT31;59082;50.658;4.608;2023-06-22T04:36:31;19.17;94.97
71297;SHT31;59082;50.658;4.608;2023-06-22T04:39:06;19.20;95.22
71297;SHT31;59082;50.658;4.608;2023-06-22T04:41:32;19.24;95.15
71297;SHT31;59082;50.658;4.608;2023-06-22T04:44:15;19.22;94.77
71297;SHT31;59082;50.658;4.608;2023-06-22T04:47:00;19.19;94.90
71297;SHT31;59082;50.658;4.608;2023-06-22T04:49:27;19.16;94.79
71297;SHT31;59082;50.658;4.608;2023-06-22T04:52:01;19.23;95.11
71297;SHT31;59082;50.658;4.608;2023-06-22T04:54:26;19.35;94.65
71297;SHT31;59082;50.658;4.608;2023-06-22T04:56:52;19.43;94.94
71297;SHT31;59082;50.658;4.608;2023-06-22T04:59:24;19.44;94.82
71297;SHT31;59082;50.658;4.608;2023-06-22T05:01:55;19.37;94.86
71297;SHT31;59082;50.658;4.608;2023-06-22T05:04:22;19.34;95.40
71297;SHT31;59082;50.658;4.608;2023-06-22T05:06:51;19.37;95.00
71297;SHT31;59082;50.658;4.608;2023-06-22T05:09:17;19.44;94.96
71297;SHT31;59082;50.658;4.608;2023-06-22T05:11:44;19.62;95.00
71297;SHT31;59082;50.658;4.608;2023-06-22T05:14:10;19.68;94.73
71297;SHT31;59082;50.658;4.608;2023-06-22T05:16:36;19.71;94.52
71297;SHT31;59082;50.658;4.608;2023-06-22T05:19:02;19.65;94.71
71297;SHT31;59082;50.658;4.608;2023-06-22T05:21:30;19.75;94.70
71297;SHT31;59082;50.658;4.608;2023-06-22T05:23:56;19.75;94.70
71297;SHT31;59082;50.658;4.608;2023-06-22T05:26:28;19.81;94.23
71297;SHT31;59082;50.658;4.608;2023-06-22T05:28:54;19.83;94.09
71297;SHT31;59082;50.658;4.608;2023-06-22T05:31:19;19.88;94.04
71297;SHT31;59082;50.658;4.608;2023-06-22T05:33:46;19.79;94.22
71297;SHT31;59082;50.658;4.608;2023-06-22T05:36:12;19.86;94.18
71297;SHT31;59082;50.658;4.608;2023-06-22T05:38:38;19.85;94.41
71297;SHT31;59082;50.658;4.608;2023-06-22T05:41:04;19.89;94.32
71297;SHT31;59082;50.658;4.608;2023-06-22T05:43:30;19.79;94.65
71297;SHT31;59082;50.658;4.608;2023-06-22T05:45:56;19.95;94.64
71297;SHT31;59082;50.658;4.608;2023-06-22T05:48:22;19.96;94.23
71297;SHT31;59082;50.658;4.608;2023-06-22T05:50:47;20.08;94.28
71297;SHT31;59082;50.658;4.608;2023-06-22T05:53:13;20.17;94.57
71297;SHT31;59082;50.658;4.608;2023-06-22T05:55:39;20.13;94.43
71297;SHT31;59082;50.658;4.608;2023-06-22T05:58:04;20.12;94.12
71297;SHT31;59082;50.658;4.608;2023-06-22T06:00:30;20.25;93.84
71297;SHT31;59082;50.658;4.608;2023-06-22T06:02:56;20.27;93.94
71297;SHT31;59082;50.658;4.608;2023-06-22T06:05:22;20.26;94.07
71297;SHT31;59082;50.658;4.608;2023-06-22T06:07:49;20.33;93.98
71297;SHT31;59082;50.658;4.608;2023-06-22T06:10:15;20.30;94.16
71297;SHT31;59082;50.658;4.608;2023-06-22T06:12:40;20.23;94.54
71297;SHT31;59082;50.658;4.608;2023-06-22T06:15:06;20.25;94.63
71297;SHT31;59082;50.658;4.608;2023-06-22T06:17:32;20.43;94.09
71297;SHT31;59082;50.658;4.608;2023-06-22T06:19:59;20.57;93.83
71297;SHT31;59082;50.658;4.608;2023-06-22T06:22:24;20.77;93.47
71297;SHT31;59082;50.658;4.608;2023-06-22T06:24:50;20.78;93.21
71297;SHT31;59082;50.658;4.608;2023-06-22T06:27:16;21.05;93.05
71297;SHT31;59082;50.658;4.608;2023-06-22T06:29:43;21.21;92.60
71297;SHT31;59082;50.658;4.608;2023-06-22T06:32:11;21.54;91.76
71297;SHT31;59082;50.658;4.608;2023-06-22T06:34:36;21.94;91.49
71297;SHT31;59082;50.658;4.608;2023-06-22T06:37:02;22.22;90.96
71297;SHT31;59082;50.658;4.608;2023-06-22T06:39:27;22.43;90.33
71297;SHT31;59082;50.658;4.608;2023-06-22T06:41:53;22.29;90.61
71297;SHT31;59082;50.658;4.608;2023-06-22T06:44:18;22.12;90.75
71297;SHT31;59082;50.658;4.608;2023-06-22T06:46:43;22.05;91.14
71297;SHT31;59082;50.658;4.608;2023-06-22T06:49:09;21.60;91.74
71297;SHT31;59082;50.658;4.608;2023-06-22T06:51:34;21.71;91.59
71297;SHT31;59082;50.658;4.608;2023-06-22T06:54:00;21.71;92.27
71297;SHT31;59082;50.658;4.608;2023-06-22T06:56:25;21.78;92.38
71297;SHT31;59082;50.658;4.608;2023-06-22T06:58:51;22.12;91.45
71297;SHT31;59082;50.658;4.608;2023-06-22T07:01:17;22.12;91.64
71297;SHT31;59082;50.658;4.608;2023-06-22T07:03:42;22.07;91.73
71297;SHT31;59082;50.658;4.608;2023-06-22T07:06:08;22.38;91.07
71297;SHT31;59082;50.658;4.608;2023-06-22T07:08:34;22.32;91.23
71297;SHT31;59082;50.658;4.608;2023-06-22T07:11:01;21.90;91.52
71297;SHT31;59082;50.658;4.608;2023-06-22T07:13:27;21.77;92.27
71297;SHT31;59082;50.658;4.608;2023-06-22T07:15:53;21.97;92.30
71297;SHT31;59082;50.658;4.608;2023-06-22T07:18:18;21.90;92.26
71297;SHT31;59082;50.658;4.608;2023-06-22T07:20:44;22.07;91.73
71297;SHT31;59082;50.658;4.608;2023-06-22T07:23:09;22.07;91.91
71297;SHT31;59082;50.658;4.608;2023-06-22T07:25:35;22.14;91.64
71297;SHT31;59082;50.658;4.608;2023-06-22T07:28:03;22.34;91.49
71297;SHT31;59082;50.658;4.608;2023-06-22T07:30:31;21.93;92.00
71297;SHT31;59082;50.658;4.608;2023-06-22T07:32:57;22.02;91.58
71297;SHT31;59082;50.658;4.608;2023-06-22T07:35:24;21.61;91.76
71297;SHT31;59082;50.658;4.608;2023-06-22T07:37:49;21.87;91.21
71297;SHT31;59082;50.658;4.608;2023-06-22T07:40:15;21.69;90.88
71297;SHT31;59082;50.658;4.608;2023-06-22T07:42:41;21.74;91.10
71297;SHT31;59082;50.658;4.608;2023-06-22T07:45:07;21.83;90.75
71297;SHT31;59082;50.658;4.608;2023-06-22T07:47:35;21.76;90.07
71297;SHT31;59082;50.658;4.608;2023-06-22T07:50:02;21.76;90.42
71297;SHT31;59082;50.658;4.608;2023-06-22T07:52:29;21.86;90.49
71297;SHT31;59082;50.658;4.608;2023-06-22T07:54:54;21.88;90.45
71297;SHT31;59082;50.658;4.608;2023-06-22T07:57:20;21.98;90.02
71297;SHT31;59082;50.658;4.608;2023-06-22T07:59:46;22.07;89.57
71297;SHT31;59082;50.658;4.608;2023-06-22T08:02:12;21.84;89.98
71297;SHT31;59082;50.658;4.608;2023-06-22T08:04:38;22.00;89.62
71297;SHT31;59082;50.658;4.608;2023-06-22T08:07:03;22.17;89.66
71297;SHT31;59082;50.658;4.608;2023-06-22T08:09:30;22.22;89.47
71297;SHT31;59082;50.658;4.608;2023-06-22T08:11:56;22.04;89.93
71297;SHT31;59082;50.658;4.608;2023-06-22T08:14:25;22.05;89.45
71297;SHT31;59082;50.658;4.608;2023-06-22T08:16:51;22.12;89.03
71297;SHT31;59082;50.658;4.608;2023-06-22T08:19:17;22.07;88.84
71297;SHT31;59082;50.658;4.608;2023-06-22T08:21:43;22.14;89.07
71297;SHT31;59082;50.658;4.608;2023-06-22T08:24:08;22.19;88.85
71297;SHT31;59082;50.658;4.608;2023-06-22T08:26:34;22.24;89.16
71297;SHT31;59082;50.658;4.608;2023-06-22T08:29:05;22.43;88.46
71297;SHT31;59082;50.658;4.608;2023-06-22T08:31:31;22.36;88.54
71297;SHT31;59082;50.658;4.608;2023-06-22T08:33:58;22.26;88.50
71297;SHT31;59082;50.658;4.608;2023-06-22T08:36:24;22.45;88.52
71297;SHT31;59082;50.658;4.608;2023-06-22T08:38:50;22.29;89.28
71297;SHT31;59082;50.658;4.608;2023-06-22T08:41:17;22.34;89.36
71297;SHT31;59082;50.658;4.608;2023-06-22T08:43:43;22.26;89.65
71297;SHT31;59082;50.658;4.608;2023-06-22T08:46:10;22.45;90.01
71297;SHT31;59082;50.658;4.608;2023-06-22T08:48:36;22.18;90.12
71297;SHT31;59082;50.658;4.608;2023-06-22T08:51:02;22.11;91.27
71297;SHT31;59082;50.658;4.608;2023-06-22T08:53:28;22.02;91.34
71297;SHT31;59082;50.658;4.608;2023-06-22T08:55:54;21.90;91.30
71297;SHT31;59082;50.658;4.608;2023-06-22T08:58:19;21.78;92.06
71297;SHT31;59082;50.658;4.608;2023-06-22T09:00:46;21.81;91.99
71297;SHT31;59082;50.658;4.608;2023-06-22T09:03:12;21.57;93.10
71297;SHT31;59082;50.658;4.608;2023-06-22T09:05:38;21.70;93.85
71297;SHT31;59082;50.658;4.608;2023-06-22T09:08:04;21.59;95.92
71297;SHT31;59082;50.658;4.608;2023-06-22T09:10:30;21.12;95.96
71297;SHT31;59082;50.658;4.608;2023-06-22T09:12:56;20.95;99.45
71297;SHT31;59082;50.658;4.608;2023-06-22T09:15:22;20.48;99.99
71297;SHT31;59082;50.658;4.608;2023-06-22T09:17:48;20.44;99.99
71297;SHT31;59082;50.658;4.608;2023-06-22T09:20:14;20.10;99.99
71297;SHT31;59082;50.658;4.608;2023-06-22T09:22:40;19.71;99.99
71297;SHT31;59082;50.658;4.608;2023-06-22T09:25:06;19.50;99.99
71297;SHT31;59082;50.658;4.608;2023-06-22T09:27:32;19.44;99.99
71297;SHT31;59082;50.658;4.608;2023-06-22T09:29:58;19.51;99.99
71297;SHT31;59082;50.658;4.608;2023-06-22T09:32:24;19.53;99.99
71297;SHT31;59082;50.658;4.608;2023-06-22T09:34:50;19.50;99.99
71297;SHT31;59082;50.658;4.608;2023-06-22T09:37:16;19.51;99.99
71297;SHT31;59082;50.658;4.608;2023-06-22T09:39:41;19.55;99.99
71297;SHT31;59082;50.658;4.608;2023-06-22T09:42:07;19.43;99.99
71297;SHT31;59082;50.658;4.608;2023-06-22T09:44:32;19.49;99.99
71297;SHT31;59082;50.658;4.608;2023-06-22T09:46:58;19.41;99.99
71297;SHT31;59082;50.658;4.608;2023-06-22T09:49:23;19.37;99.99
71297;SHT31;59082;50.658;4.608;2023-06-22T09:51:49;19.46;99.99
71297;SHT31;59082;50.658;4.608;2023-06-22T09:54:16;19.47;99.99
71297;SHT31;59082;50.658;4.608;2023-06-22T09:56:41;19.50;99.99
71297;SHT31;59082;50.658;4.608;2023-06-22T09:59:07;19.53;99.99
71297;SHT31;59082;50.658;4.608;2023-06-22T10:01:32;19.30;99.99
71297;SHT31;59082;50.658;4.608;2023-06-22T10:03:58;19.27;99.99
71297;SHT31;59082;50.658;4.608;2023-06-22T10:06:23;19.34;99.99
71297;SHT31;59082;50.658;4.608;2023-06-22T10:08:51;19.23;99.99
71297;SHT31;59082;50.658;4.608;2023-06-22T10:11:16;19.19;99.99
71297;SHT31;59082;50.658;4.608;2023-06-22T10:13:42;19.05;99.99
71297;SHT31;59082;50.658;4.608;2023-06-22T10:16:07;18.93;99.99
71297;SHT31;59082;50.658;4.608;2023-06-22T10:18:33;19.05;99.99
71297;SHT31;59082;50.658;4.608;2023-06-22T10:20:58;19.12;99.99
71297;SHT31;59082;50.658;4.608;2023-06-22T10:23:24;19.06;99.99
71297;SHT31;59082;50.658;4.608;2023-06-22T10:25:49;19.27;99.99
71297;SHT31;59082;50.658;4.608;2023-06-22T10:28:15;19.50;99.99
71297;SHT31;59082;50.658;4.608;2023-06-22T10:30:41;19.70;99.99
71297;SHT31;59082;50.658;4.608;2023-06-22T10:33:08;19.86;99.99
71297;SHT31;59082;50.658;4.608;2023-06-22T10:35:34;19.98;99.99
71297;SHT31;59082;50.658;4.608;2023-06-22T10:37:59;19.72;99.99
71297;SHT31;59082;50.658;4.608;2023-06-22T10:40:25;20.44;99.99
71297;SHT31;59082;50.658;4.608;2023-06-22T10:42:50;20.71;99.99
71297;SHT31;59082;50.658;4.608;2023-06-22T10:45:16;20.91;99.99
71297;SHT31;59082;50.658;4.608;2023-06-22T10:47:42;20.87;99.99
71297;SHT31;59082;50.658;4.608;2023-06-22T10:50:08;21.01;99.99
71297;SHT31;59082;50.658;4.608;2023-06-22T10:52:38;20.51;99.99
71297;SHT31;59082;50.658;4.608;2023-06-22T10:55:04;20.19;99.99
71297;SHT31;59082;50.658;4.608;2023-06-22T10:57:30;19.83;99.99
71297;SHT31;59082;50.658;4.608;2023-06-22T10:59:55;19.75;99.99
71297;SHT31;59082;50.658;4.608;2023-06-22T11:02:21;19.44;99.99
71297;SHT31;59082;50.658;4.608;2023-06-22T11:04:46;19.05;99.99
71297;SHT31;59082;50.658;4.608;2023-06-22T11:07:13;19.00;99.99
71297;SHT31;59082;50.658;4.608;2023-06-22T11:09:39;19.10;99.99
71297;SHT31;59082;50.658;4.608;2023-06-22T11:12:05;18.91;99.99
71297;SHT31;59082;50.658;4.608;2023-06-22T11:14:31;18.79;99.99
71297;SHT31;59082;50.658;4.608;2023-06-22T11:16:59;18.65;99.99
71297;SHT31;59082;50.658;4.608;2023-06-22T11:19:24;18.88;99.99
71297;SHT31;59082;50.658;4.608;2023-06-22T11:21:50;18.86;99.99
71297;SHT31;59082;50.658;4.608;2023-06-22T11:24:16;18.91;99.99
71297;SHT31;59082;50.658;4.608;2023-06-22T11:26:42;19.00;99.99
71297;SHT31;59082;50.658;4.608;2023-06-22T11:29:08;19.07;99.99
71297;SHT31;59082;50.658;4.608;2023-06-22T11:31:34;19.06;99.99
71297;SHT31;59082;50.658;4.608;2023-06-22T11:34:00;18.93;99.99
71297;SHT31;59082;50.658;4.608;2023-06-22T11:36:26;18.93;99.99
71297;SHT31;59082;50.658;4.608;2023-06-22T11:38:52;18.99;99.99
71297;SHT31;59082;50.658;4.608;2023-06-22T11:41:18;18.69;99.99
71297;SHT31;59082;50.658;4.608;2023-06-22T11:43:44;18.66;99.99
71297;SHT31;59082;50.658;4.608;2023-06-22T11:46:10;18.64;99.99
71297;SHT31;59082;50.658;4.608;2023-06-22T11:48:35;18.61;99.99
71297;SHT31;59082;50.658;4.608;2023-06-22T11:51:02;18.51;99.99
71297;SHT31;59082;50.658;4.608;2023-06-22T11:53:28;18.47;99.99
71297;SHT31;59082;50.658;4.608;2023-06-22T11:55:54;18.34;99.99
71297;SHT31;59082;50.658;4.608;2023-06-22T11:58:20;18.26;99.99
71297;SHT31;59082;50.658;4.608;2023-06-22T12:00:46;18.20;99.99
71297;SHT31;59082;50.658;4.608;2023-06-22T12:03:12;18.28;99.99
71297;SHT31;59082;50.658;4.608;2023-06-22T12:05:38;18.37;99.99
71297;SHT31;59082;50.658;4.608;2023-06-22T12:08:04;18.17;99.99
71297;SHT31;59082;50.658;4.608;2023-06-22T12:10:29;18.23;99.99
71297;SHT31;59082;50.658;4.608;2023-06-22T12:12:56;18.30;99.99
71297;SHT31;59082;50.658;4.608;2023-06-22T12:15:26;18.26;99.99
71297;SHT31;59082;50.658;4.608;2023-06-22T12:17:52;18.26;99.99
71297;SHT31;59082;50.658;4.608;2023-06-22T12:20:17;18.20;99.99
71297;SHT31;59082;50.658;4.608;2023-06-22T12:22:44;18.24;99.99
71297;SHT31;59082;50.658;4.608;2023-06-22T12:25:10;18.21;99.99
71297;SHT31;59082;50.658;4.608;2023-06-22T12:27:36;18.20;99.99
71297;SHT31;59082;50.658;4.608;2023-06-22T12:30:02;18.16;99.99
71297;SHT31;59082;50.658;4.608;2023-06-22T12:32:28;18.21;99.99
71297;SHT31;59082;50.658;4.608;2023-06-22T12:34:54;18.09;99.99
71297;SHT31;59082;50.658;4.608;2023-06-22T12:37:20;18.04;99.99
71297;SHT31;59082;50.658;4.608;2023-06-22T12:39:46;18.11;99.99
71297;SHT31;59082;50.658;4.608;2023-06-22T12:42:11;18.06;99.99
71297;SHT31;59082;50.658;4.608;2023-06-22T12:44:38;18.04;99.99
71297;SHT31;59082;50.658;4.608;2023-06-22T12:47:05;18.09;99.99
71297;SHT31;59082;50.658;4.608;2023-06-22T12:49:30;18.06;99.99
71297;SHT31;59082;50.658;4.608;2023-06-22T12:51:56;18.13;99.99
71297;SHT31;59082;50.658;4.608;2023-06-22T12:54:22;18.09;99.99
71297;SHT31;59082;50.658;4.608;2023-06-22T12:56:47;18.03;99.99
71297;SHT31;59082;50.658;4.608;2023-06-22T12:59:13;18.13;99.99
71297;SHT31;59082;50.658;4.608;2023-06-22T13:01:38;18.06;99.99
71297;SHT31;59082;50.658;4.608;2023-06-22T13:04:04;18.06;99.99
71297;SHT31;59082;50.658;4.608;2023-06-22T13:06:30;17.96;99.99
71297;SHT31;59082;50.658;4.608;2023-06-22T13:08:56;17.94;99.99
71297;SHT31;59082;50.658;4.608;2023-06-22T13:11:21;17.93;99.99
71297;SHT31;59082;50.658;4.608;2023-06-22T13:13:47;17.91;99.99
71297;SHT31;59082;50.658;4.608;2023-06-22T13:16:12;18.01;99.99
71297;SHT31;59082;50.658;4.608;2023-06-22T13:18:38;18.00;99.99
71297;SHT31;59082;50.658;4.608;2023-06-22T13:21:04;18.01;99.99
71297;SHT31;59082;50.658;4.608;2023-06-22T13:23:30;17.93;99.99
71297;SHT31;59082;50.658;4.608;2023-06-22T13:25:57;17.94;99.99
71297;SHT31;59082;50.658;4.608;2023-06-22T13:28:23;17.86;99.99
71297;SHT31;59082;50.658;4.608;2023-06-22T13:30:48;17.89;99.99
71297;SHT31;59082;50.658;4.608;2023-06-22T13:33:14;17.96;99.99
71297;SHT31;59082;50.658;4.608;2023-06-22T13:35:40;18.01;99.99
71297;SHT31;59082;50.658;4.608;2023-06-22T13:38:08;18.01;99.99
71297;SHT31;59082;50.658;4.608;2023-06-22T13:40:34;17.97;99.99
71297;SHT31;59082;50.658;4.608;2023-06-22T13:43:00;18.03;99.99
71297;SHT31;59082;50.658;4.608;2023-06-22T13:45:26;17.96;99.99
71297;SHT31;59082;50.658;4.608;2023-06-22T13:47:51;17.99;99.99
71297;SHT31;59082;50.658;4.608;2023-06-22T13:50:17;17.97;99.99
71297;SHT31;59082;50.658;4.608;2023-06-22T13:52:43;17.96;99.99
71297;SHT31;59082;50.658;4.608;2023-06-22T13:55:09;18.03;99.99
71297;SHT31;59082;50.658;4.608;2023-06-22T13:57:35;17.91;99.99
71297;SHT31;59082;50.658;4.608;2023-06-22T14:00:01;18.00;99.99
71297;SHT31;59082;50.658;4.608;2023-06-22T14:02:26;17.97;99.99
71297;SHT31;59082;50.658;4.608;2023-06-22T14:04:53;17.99;99.99
71297;SHT31;59082;50.658;4.608;2023-06-22T14:07:19;18.03;99.99
71297;SHT31;59082;50.658;4.608;2023-06-22T14:09:46;17.97;99.99
71297;SHT31;59082;50.658;4.608;2023-06-22T14:12:12;17.97;99.99
71297;SHT31;59082;50.658;4.608;2023-06-22T14:14:37;17.99;99.99
71297;SHT31;59082;50.658;4.608;2023-06-22T14:17:04;18.04;99.99
71297;SHT31;59082;50.658;4.608;2023-06-22T14:19:29;18.09;99.99
71297;SHT31;59082;50.658;4.608;2023-06-22T14:21:55;18.03;99.99
71297;SHT31;59082;50.658;4.608;2023-06-22T14:24:22;18.09;99.99
71297;SHT31;59082;50.658;4.608;2023-06-22T14:26:48;18.18;99.99
71297;SHT31;59082;50.658;4.608;2023-06-22T14:29:14;18.23;99.99
71297;SHT31;59082;50.658;4.608;2023-06-22T14:31:39;18.16;99.99
71297;SHT31;59082;50.658;4.608;2023-06-22T14:34:05;18.18;99.99
71297;SHT31;59082;50.658;4.608;2023-06-22T14:36:31;18.26;99.99
71297;SHT31;59082;50.658;4.608;2023-06-22T14:38:57;18.33;99.99
71297;SHT31;59082;50.658;4.608;2023-06-22T14:41:22;18.38;99.99
71297;SHT31;59082;50.658;4.608;2023-06-22T14:43:49;18.24;99.99
71297;SHT31;59082;50.658;4.608;2023-06-22T14:46:17;18.20;99.99
71297;SHT31;59082;50.658;4.608;2023-06-22T14:48:43;18.23;99.99
71297;SHT31;59082;50.658;4.608;2023-06-22T14:51:09;18.27;99.99
71297;SHT31;59082;50.658;4.608;2023-06-22T14:53:35;18.24;99.99
71297;SHT31;59082;50.658;4.608;2023-06-22T14:56:01;18.14;99.99
71297;SHT31;59082;50.658;4.608;2023-06-22T14:58:28;18.14;99.99
71297;SHT31;59082;50.658;4.608;2023-06-22T15:00:55;18.01;99.99
71297;SHT31;59082;50.658;4.608;2023-06-22T15:03:20;18.03;99.99
71297;SHT31;59082;50.658;4.608;2023-06-22T15:05:50;18.03;99.99
71297;SHT31;59082;50.658;4.608;2023-06-22T15:08:16;18.03;99.99
71297;SHT31;59082;50.658;4.608;2023-06-22T15:10:41;18.13;99.99
71297;SHT31;59082;50.658;4.608;2023-06-22T15:13:07;18.13;99.99
71297;SHT31;59082;50.658;4.608;2023-06-22T15:15:32;18.10;99.99
71297;SHT31;59082;50.658;4.608;2023-06-22T15:17:59;18.11;99.99
71297;SHT31;59082;50.658;4.608;2023-06-22T15:20:24;18.11;99.99
71297;SHT31;59082;50.658;4.608;2023-06-22T15:22:49;18.23;99.99
71297;SHT31;59082;50.658;4.608;2023-06-22T15:25:15;18.40;99.99
71297;SHT31;59082;50.658;4.608;2023-06-22T15:27:40;18.51;99.99
71297;SHT31;59082;50.658;4.608;2023-06-22T15:30:06;18.51;99.99
71297;SHT31;59082;50.658;4.608;2023-06-22T15:32:32;18.48;99.99
71297;SHT31;59082;50.658;4.608;2023-06-22T15:34:58;18.54;99.99
71297;SHT31;59082;50.658;4.608;2023-06-22T15:37:23;18.57;99.99
71297;SHT31;59082;50.658;4.608;2023-06-22T15:39:49;18.61;99.99
71297;SHT31;59082;50.658;4.608;2023-06-22T15:42:14;18.76;99.99
71297;SHT31;59082;50.658;4.608;2023-06-22T15:44:40;18.62;99.99
71297;SHT31;59082;50.658;4.608;2023-06-22T15:47:05;18.55;99.99
71297;SHT31;59082;50.658;4.608;2023-06-22T15:49:31;18.52;99.99
71297;SHT31;59082;50.658;4.608;2023-06-22T15:51:56;18.61;99.99
71297;SHT31;59082;50.658;4.608;2023-06-22T15:54:22;18.48;99.99
71297;SHT31;59082;50.658;4.608;2023-06-22T15:56:47;18.49;99.99
71297;SHT31;59082;50.658;4.608;2023-06-22T15:59:13;18.66;99.99
71297;SHT31;59082;50.658;4.608;2023-06-22T16:01:39;18.78;99.99
71297;SHT31;59082;50.658;4.608;2023-06-22T16:04:04;18.69;99.99
71297;SHT31;59082;50.658;4.608;2023-06-22T16:06:30;18.62;99.99
71297;SHT31;59082;50.658;4.608;2023-06-22T16:08:56;18.55;99.99
71297;SHT31;59082;50.658;4.608;2023-06-22T16:11:22;18.61;99.99
71297;SHT31;59082;50.658;4.608;2023-06-22T16:13:47;18.68;99.99
71297;SHT31;59082;50.658;4.608;2023-06-22T16:16:13;18.68;99.99
71297;SHT31;59082;50.658;4.608;2023-06-22T16:18:38;18.61;99.99
71297;SHT31;59082;50.658;4.608;2023-06-22T16:21:06;18.54;99.99
71297;SHT31;59082;50.658;4.608;2023-06-22T16:23:32;18.59;99.99
71297;SHT31;59082;50.658;4.608;2023-06-22T16:25:57;18.58;99.99
71297;SHT31;59082;50.658;4.608;2023-06-22T16:28:23;18.66;99.99
71297;SHT31;59082;50.658;4.608;2023-06-22T16:30:48;18.65;99.99
71297;SHT31;59082;50.658;4.608;2023-06-22T16:33:14;18.81;99.99
71297;SHT31;59082;50.658;4.608;2023-06-22T16:35:39;18.66;99.99
71297;SHT31;59082;50.658;4.608;2023-06-22T16:38:06;18.54;99.99
71297;SHT31;59082;50.658;4.608;2023-06-22T16:40:32;18.52;99.99
71297;SHT31;59082;50.658;4.608;2023-06-22T16:42:58;18.71;99.99
71297;SHT31;59082;50.658;4.608;2023-06-22T16:45:23;18.71;99.99
71297;SHT31;59082;50.658;4.608;2023-06-22T16:47:51;18.69;99.99
71297;SHT31;59082;50.658;4.608;2023-06-22T16:50:17;18.78;99.99
71297;SHT31;59082;50.658;4.608;2023-06-22T16:52:43;18.69;99.99
71297;SHT31;59082;50.658;4.608;2023-06-22T16:55:13;18.69;99.99
71297;SHT31;59082;50.658;4.608;2023-06-22T16:57:38;18.65;99.99
71297;SHT31;59082;50.658;4.608;2023-06-22T17:00:04;18.65;99.99
71297;SHT31;59082;50.658;4.608;2023-06-22T17:02:41;18.45;99.99
71297;SHT31;59082;50.658;4.608;2023-06-22T17:05:08;18.44;99.99
71297;SHT31;59082;50.658;4.608;2023-06-22T17:07:36;18.49;99.99
71297;SHT31;59082;50.658;4.608;2023-06-22T17:10:02;18.48;99.99
71297;SHT31;59082;50.658;4.608;2023-06-22T17:12:28;18.44;99.99
71297;SHT31;59082;50.658;4.608;2023-06-22T17:14:57;18.45;99.99
71297;SHT31;59082;50.658;4.608;2023-06-22T17:17:23;18.37;99.99
71297;SHT31;59082;50.658;4.608;2023-06-22T17:19:51;18.37;99.99
71297;SHT31;59082;50.658;4.608;2023-06-22T17:22:16;18.41;99.99
71297;SHT31;59082;50.658;4.608;2023-06-22T17:24:43;18.43;99.99
71297;SHT31;59082;50.658;4.608;2023-06-22T17:27:09;18.36;99.99
71297;SHT31;59082;50.658;4.608;2023-06-22T17:29:35;18.34;99.99
71297;SHT31;59082;50.658;4.608;2023-06-22T17:32:02;18.38;99.99
71297;SHT31;59082;50.658;4.608;2023-06-22T17:34:29;18.49;99.99
71297;SHT31;59082;50.658;4.608;2023-06-22T17:36:55;18.47;99.99
71297;SHT31;59082;50.658;4.608;2023-06-22T17:39:22;18.52;99.99
71297;SHT31;59082;50.658;4.608;2023-06-22T17:41:49;18.55;99.99
71297;SHT31;59082;50.658;4.608;2023-06-22T17:46:51;18.64;99.99
71297;SHT31;59082;50.658;4.608;2023-06-22T17:49:17;18.61;99.99
71297;SHT31;59082;50.658;4.608;2023-06-22T17:51:44;18.55;99.99
71297;SHT31;59082;50.658;4.608;2023-06-22T17:54:11;18.59;99.99
71297;SHT31;59082;50.658;4.608;2023-06-22T17:56:37;18.65;99.99
71297;SHT31;59082;50.658;4.608;2023-06-22T17:59:03;18.62;99.99
71297;SHT31;59082;50.658;4.608;2023-06-22T18:01:34;18.59;99.99
71297;SHT31;59082;50.658;4.608;2023-06-22T18:04:07;18.58;99.99
71297;SHT31;59082;50.658;4.608;2023-06-22T18:06:41;18.52;99.99
71297;SHT31;59082;50.658;4.608;2023-06-22T18:09:08;18.49;99.99
71297;SHT31;59082;50.658;4.608;2023-06-22T18:11:43;18.41;99.99
71297;SHT31;59082;50.658;4.608;2023-06-22T18:14:10;18.40;99.99
71297;SHT31;59082;50.658;4.608;2023-06-22T18:16:39;18.37;99.99
71297;SHT31;59082;50.658;4.608;2023-06-22T18:19:06;18.43;99.99
71297;SHT31;59082;50.658;4.608;2023-06-22T18:21:32;18.47;99.99
71297;SHT31;59082;50.658;4.608;2023-06-22T18:23:57;18.47;99.99
71297;SHT31;59082;50.658;4.608;2023-06-22T18:26:25;18.45;99.99
71297;SHT31;59082;50.658;4.608;2023-06-22T18:28:53;18.45;99.99
71297;SHT31;59082;50.658;4.608;2023-06-22T18:31:19;18.44;99.99
71297;SHT31;59082;50.658;4.608;2023-06-22T18:33:50;18.47;99.99
71297;SHT31;59082;50.658;4.608;2023-06-22T18:36:19;18.40;99.99
71297;SHT31;59082;50.658;4.608;2023-06-22T18:38:46;18.43;99.99
71297;SHT31;59082;50.658;4.608;2023-06-22T18:41:33;18.38;99.99
71297;SHT31;59082;50.658;4.608;2023-06-22T18:44:00;18.36;99.99
71297;SHT31;59082;50.658;4.608;2023-06-22T18:49:02;18.30;99.99
71297;SHT31;59082;50.658;4.608;2023-06-22T18:51:51;18.23;99.99
71297;SHT31;59082;50.658;4.608;2023-06-22T18:54:34;18.20;99.99
71297;SHT31;59082;50.658;4.608;2023-06-22T18:57:00;18.16;99.99
71297;SHT31;59082;50.658;4.608;2023-06-22T18:59:50;18.09;99.99
71297;SHT31;59082;50.658;4.608;2023-06-22T19:02:34;18.03;99.99
71297;SHT31;59082;50.658;4.608;2023-06-22T19:10:26;17.99;99.99
71297;SHT31;59082;50.658;4.608;2023-06-22T19:12:56;17.93;99.99
71297;SHT31;59082;50.658;4.608;2023-06-22T19:15:29;17.96;99.99
71297;SHT31;59082;50.658;4.608;2023-06-22T19:20:48;17.91;99.99
71297;SHT31;59082;50.658;4.608;2023-06-22T19:23:40;17.85;99.99
71297;SHT31;59082;50.658;4.608;2023-06-22T19:26:13;17.82;99.99
71297;SHT31;59082;50.658;4.608;2023-06-22T19:28:46;17.79;99.99
71297;SHT31;59082;50.658;4.608;2023-06-22T19:31:13;17.76;99.99
71297;SHT31;59082;50.658;4.608;2023-06-22T19:33:39;17.73;99.99
71297;SHT31;59082;50.658;4.608;2023-06-22T19:36:05;17.69;99.99
71297;SHT31;59082;50.658;4.608;2023-06-22T19:38:31;17.66;99.99
71297;SHT31;59082;50.658;4.608;2023-06-22T19:40:58;17.68;99.99
71297;SHT31;59082;50.658;4.608;2023-06-22T19:43:28;17.66;99.99
71297;SHT31;59082;50.658;4.608;2023-06-22T19:45:57;17.66;99.99
71297;SHT31;59082;50.658;4.608;2023-06-22T19:48:28;17.59;99.99
71297;SHT31;59082;50.658;4.608;2023-06-22T19:50:54;17.59;99.99
71297;SHT31;59082;50.658;4.608;2023-06-22T19:53:21;17.62;99.99
71297;SHT31;59082;50.658;4.608;2023-06-22T19:55:49;17.55;99.99